Negaunee, MI

4:45 PM EDT on October 01, 2014 (GMT -0400)
Sawyer International | Change Station
CLOSE
Current Station
Airport
Location: Gwinn,
Elevation: 372 m
Nearby Weather Stations

Elev 372 m 46.34 °N, 87.40 °W | Updated -243 second ago

Overcast
Overcast
7 °C
Feels Like 6 °C
N
7
Wind Variable Wind from North

Today
High -- | Low -- °C
--% Chance of Precip.
Yesterday
High -- | Low -- °C
Precip. -- mm
7:48 AM 7:30 PM
Waxing Crescent, 51% visible
Pressure 1018 hPa
Visibility 16.1 kilometers
Clouds Overcast 365 m
Windchill 6 °C
Dew Point 4 °C
Humidity 81%
Rainfall 0.0 mm
Snow Depth Not available.
UV 1 out of 12
Pollen 2.10 out of 12
Ozone Good
PM2.5 Good
Flu Activity Not available.
METAR KSAW 302050Z 01004KT 10SM OVC012 07/04 A3007

More Conditions Fewer Conditions

Pressure 1018 hPa
Visibility 16.1 kilometers
Clouds Overcast 365 m
Windchill 6 °C
Dew Point 4 °C
Humidity 81%
Rainfall 0.0 mm
Snow Depth Not available.
UV 1 out of 12
Pollen 2.10 out of 12
Ozone Good
PM2.5 Good
Flu Activity Not available.
METAR KSAW 302050Z 01004KT 10SM OVC012 07/04 A3007

More Conditions Fewer Conditions

10-Day Weather Forecast

Almanac

Astronomy

Oct. 01, 2014 Rise Set
Actual Time 7:48 AM EDT 7:30 PM EDT
Civil Twilight 7:18 AM EDT 8:00 PM EDT
Nautical Twilight 6:43 AM EDT 8:35 PM EDT
Astronomical Twilight 6:08 AM EDT 9:10 PM EDT
Moon 3:04 PM EDT No Moon Set
Length of Visible Light 12h 41m
Length of Day
11h 41m
Tomorrow will be 3m 17s shorter.
Waxing Crescent, 51% of the Moon is Illuminated
Today
Waxing Crescent
Oct 8
Full
Oct 15
Last Quarter
Oct 23
New
Oct 30
First Quarter

Today's Extremes

State Highs State Lows

Community

WunderPhotos

Upload Photos

1,758,043 photos uploaded!

WunderBlogs® & News

By Dr. Jeff Masters
Director of Meteorology, Weather Underground
By Kari Strenfel
Meteorologist, Weather Underground
By Christopher C. Burt
Weather Historian, Weather Underground
October 1, 2014
October 1, 2014
October 1, 2014

Nearby

Air Quality

  Air Quality AQ Index Pollutant
Yesterday Good
OZONE
Yesterday Good
PM2.5
Current Good
PM2.5
Current Good
OZONE
Wednesday Good
OZONE
Wednesday Good
PM2.5
Thursday Good
OZONE
Thursday Good
PM2.5
Friday Good
OZONE
Friday Good
PM2.5
Saturday Good
OZONE
Saturday Good
PM2.5

Snow Depth

Station Depth Elevation
No new snow has been reported.

Earthquake Activity

City Distance Mag. Time & Date
No recent earthquake activity has been reported nearby.
Minimum magnitude displayed is 2.5.

Coastal Water Temperatures

Place Temperature
No Stations Reporting

Nearby Weather Stations